sensor_id;sensor_type;location;lat;lon;timestamp;temperature;humidity
54409;DHT22;40315;48.620;9.828;2023-04-19T00:02:11;9.20;99.90
54409;DHT22;40315;48.620;9.828;2023-04-19T00:04:38;9.20;99.90
54409;DHT22;40315;48.620;9.828;2023-04-19T00:07:07;9.30;99.90
54409;DHT22;40315;48.620;9.828;2023-04-19T00:09:36;9.50;99.90
54409;DHT22;40315;48.620;9.828;2023-04-19T00:12:03;9.30;99.90
54409;DHT22;40315;48.620;9.828;2023-04-19T00:14:30;9.30;99.90
54409;DHT22;40315;48.620;9.828;2023-04-19T00:16:57;9.30;99.90
54409;DHT22;40315;48.620;9.828;2023-04-19T00:19:24;9.20;99.90
54409;DHT22;40315;48.620;9.828;2023-04-19T00:21:51;9.20;99.90
54409;DHT22;40315;48.620;9.828;2023-04-19T00:24:18;9.20;99.90
54409;DHT22;40315;48.620;9.828;2023-04-19T00:26:46;9.20;99.90
54409;DHT22;40315;48.620;9.828;2023-04-19T00:29:16;9.20;99.90
54409;DHT22;40315;48.620;9.828;2023-04-19T00:31:43;9.10;99.90
54409;DHT22;40315;48.620;9.828;2023-04-19T00:34:10;9.20;99.90
54409;DHT22;40315;48.620;9.828;2023-04-19T00:36:37;9.20;99.90
54409;DHT22;40315;48.620;9.828;2023-04-19T00:39:05;9.20;99.90
54409;DHT22;40315;48.620;9.828;2023-04-19T00:41:32;9.20;99.90
54409;DHT22;40315;48.620;9.828;2023-04-19T00:44:01;9.20;99.90
54409;DHT22;40315;48.620;9.828;2023-04-19T00:46:28;9.10;99.90
54409;DHT22;40315;48.620;9.828;2023-04-19T00:48:58;9.10;99.90
54409;DHT22;40315;48.620;9.828;2023-04-19T00:51:25;9.10;99.90
54409;DHT22;40315;48.620;9.828;2023-04-19T00:53:55;9.30;99.90
54409;DHT22;40315;48.620;9.828;2023-04-19T00:56:25;9.00;99.90
54409;DHT22;40315;48.620;9.828;2023-04-19T00:58:53;9.00;99.90
54409;DHT22;40315;48.620;9.828;2023-04-19T01:03:56;9.10;99.90
54409;DHT22;40315;48.620;9.828;2023-04-19T01:06:23;9.10;99.90
54409;DHT22;40315;48.620;9.828;2023-04-19T01:08:50;9.00;99.90
54409;DHT22;40315;48.620;9.828;2023-04-19T01:11:17;9.50;99.90
54409;DHT22;40315;48.620;9.828;2023-04-19T01:13:44;9.00;99.90
54409;DHT22;40315;48.620;9.828;2023-04-19T01:16:11;9.00;99.90
54409;DHT22;40315;48.620;9.828;2023-04-19T01:18:38;9.10;99.90
54409;DHT22;40315;48.620;9.828;2023-04-19T01:21:07;9.00;99.90
54409;DHT22;40315;48.620;9.828;2023-04-19T01:23:36;9.20;99.90
54409;DHT22;40315;48.620;9.828;2023-04-19T01:26:04;8.90;99.90
54409;DHT22;40315;48.620;9.828;2023-04-19T01:28:31;8.90;99.90
54409;DHT22;40315;48.620;9.828;2023-04-19T01:30:58;8.90;99.90
54409;DHT22;40315;48.620;9.828;2023-04-19T01:33:28;9.00;99.90
54409;DHT22;40315;48.620;9.828;2023-04-19T01:35:55;8.80;99.90
54409;DHT22;40315;48.620;9.828;2023-04-19T01:38:22;8.90;99.90
54409;DHT22;40315;48.620;9.828;2023-04-19T01:40:50;9.50;99.90
54409;DHT22;40315;48.620;9.828;2023-04-19T01:43:17;8.90;99.90
54409;DHT22;40315;48.620;9.828;2023-04-19T01:52:30;8.80;99.90
54409;DHT22;40315;48.620;9.828;2023-04-19T01:54:58;8.80;99.90
54409;DHT22;40315;48.620;9.828;2023-04-19T01:57:30;8.80;99.90
54409;DHT22;40315;48.620;9.828;2023-04-19T01:59:57;8.90;99.90
54409;DHT22;40315;48.620;9.828;2023-04-19T02:02:25;8.90;99.90
54409;DHT22;40315;48.620;9.828;2023-04-19T02:04:53;9.70;99.90
54409;DHT22;40315;48.620;9.828;2023-04-19T02:07:19;8.80;99.90
54409;DHT22;40315;48.620;9.828;2023-04-19T02:09:46;8.80;99.90
54409;DHT22;40315;48.620;9.828;2023-04-19T02:12:14;8.80;99.90
54409;DHT22;40315;48.620;9.828;2023-04-19T02:14:44;8.80;99.90
54409;DHT22;40315;48.620;9.828;2023-04-19T02:17:11;9.00;99.90
54409;DHT22;40315;48.620;9.828;2023-04-19T02:19:40;8.80;99.90
54409;DHT22;40315;48.620;9.828;2023-04-19T02:22:07;8.80;99.90
54409;DHT22;40315;48.620;9.828;2023-04-19T02:24:38;8.80;99.90
54409;DHT22;40315;48.620;9.828;2023-04-19T02:27:05;8.80;99.90
54409;DHT22;40315;48.620;9.828;2023-04-19T02:29:32;8.80;99.90
54409;DHT22;40315;48.620;9.828;2023-04-19T02:32:05;8.80;99.90
54409;DHT22;40315;48.620;9.828;2023-04-19T02:34:32;8.80;99.90
54409;DHT22;40315;48.620;9.828;2023-04-19T02:37:00;8.70;99.90
54409;DHT22;40315;48.620;9.828;2023-04-19T02:39:27;8.70;99.90
54409;DHT22;40315;48.620;9.828;2023-04-19T02:41:58;8.70;99.90
54409;DHT22;40315;48.620;9.828;2023-04-19T02:44:25;8.70;99.90
54409;DHT22;40315;48.620;9.828;2023-04-19T02:46:53;8.60;99.90
54409;DHT22;40315;48.620;9.828;2023-04-19T02:49:23;8.60;99.90
54409;DHT22;40315;48.620;9.828;2023-04-19T02:51:51;8.90;99.90
54409;DHT22;40315;48.620;9.828;2023-04-19T02:54:18;8.60;99.90
54409;DHT22;40315;48.620;9.828;2023-04-19T02:56:48;8.50;99.90
54409;DHT22;40315;48.620;9.828;2023-04-19T02:59:18;8.60;99.90
54409;DHT22;40315;48.620;9.828;2023-04-19T03:01:47;8.70;99.90
54409;DHT22;40315;48.620;9.828;2023-04-19T03:04:14;8.60;99.90
54409;DHT22;40315;48.620;9.828;2023-04-19T03:06:45;8.70;99.90
54409;DHT22;40315;48.620;9.828;2023-04-19T03:09:12;8.60;99.90
54409;DHT22;40315;48.620;9.828;2023-04-19T03:11:41;8.60;99.90
54409;DHT22;40315;48.620;9.828;2023-04-19T03:14:08;8.50;99.90
54409;DHT22;40315;48.620;9.828;2023-04-19T03:16:37;9.40;99.90
54409;DHT22;40315;48.620;9.828;2023-04-19T03:19:04;8.50;99.90
54409;DHT22;40315;48.620;9.828;2023-04-19T03:21:37;8.50;99.90
54409;DHT22;40315;48.620;9.828;2023-04-19T03:24:06;8.60;99.90
54409;DHT22;40315;48.620;9.828;2023-04-19T03:26:39;8.50;99.90
54409;DHT22;40315;48.620;9.828;2023-04-19T03:29:06;8.50;99.90
54409;DHT22;40315;48.620;9.828;2023-04-19T03:31:40;8.40;99.90
54409;DHT22;40315;48.620;9.828;2023-04-19T03:34:11;8.40;99.90
54409;DHT22;40315;48.620;9.828;2023-04-19T03:36:41;8.30;99.90
54409;DHT22;40315;48.620;9.828;2023-04-19T03:39:10;8.30;99.90
54409;DHT22;40315;48.620;9.828;2023-04-19T03:41:39;8.40;99.90
54409;DHT22;40315;48.620;9.828;2023-04-19T03:44:30;8.30;99.90
54409;DHT22;40315;48.620;9.828;2023-04-19T03:46:57;8.30;99.90
54409;DHT22;40315;48.620;9.828;2023-04-19T03:49:28;8.30;99.90
54409;DHT22;40315;48.620;9.828;2023-04-19T03:52:03;8.30;99.90
54409;DHT22;40315;48.620;9.828;2023-04-19T03:54:35;8.30;99.90
54409;DHT22;40315;48.620;9.828;2023-04-19T03:57:06;8.40;99.90
54409;DHT22;40315;48.620;9.828;2023-04-19T03:59:37;8.40;99.90
54409;DHT22;40315;48.620;9.828;2023-04-19T04:02:05;8.60;99.90
54409;DHT22;40315;48.620;9.828;2023-04-19T04:04:32;8.40;99.90
54409;DHT22;40315;48.620;9.828;2023-04-19T04:06:59;8.40;99.90
54409;DHT22;40315;48.620;9.828;2023-04-19T04:09:27;8.40;99.90
54409;DHT22;40315;48.620;9.828;2023-04-19T04:11:55;8.40;99.90
54409;DHT22;40315;48.620;9.828;2023-04-19T04:14:23;8.40;99.90
54409;DHT22;40315;48.620;9.828;2023-04-19T04:16:50;8.30;99.90
54409;DHT22;40315;48.620;9.828;2023-04-19T04:19:17;8.30;99.90
54409;DHT22;40315;48.620;9.828;2023-04-19T04:21:46;8.30;99.90
54409;DHT22;40315;48.620;9.828;2023-04-19T04:24:15;8.30;99.90
54409;DHT22;40315;48.620;9.828;2023-04-19T04:26:58;8.20;99.90
54409;DHT22;40315;48.620;9.828;2023-04-19T04:29:28;8.30;99.90
54409;DHT22;40315;48.620;9.828;2023-04-19T04:31:59;8.20;99.90
54409;DHT22;40315;48.620;9.828;2023-04-19T04:34:32;8.10;99.90
54409;DHT22;40315;48.620;9.828;2023-04-19T04:37:05;8.30;99.90
54409;DHT22;40315;48.620;9.828;2023-04-19T04:39:37;8.30;99.90
54409;DHT22;40315;48.620;9.828;2023-04-19T04:42:07;8.30;99.90
54409;DHT22;40315;48.620;9.828;2023-04-19T04:44:35;8.50;99.90
54409;DHT22;40315;48.620;9.828;2023-04-19T04:47:04;8.30;99.90
54409;DHT22;40315;48.620;9.828;2023-04-19T04:49:37;8.40;99.90
54409;DHT22;40315;48.620;9.828;2023-04-19T04:52:04;8.40;99.90
54409;DHT22;40315;48.620;9.828;2023-04-19T04:54:39;8.40;99.90
54409;DHT22;40315;48.620;9.828;2023-04-19T04:57:18;8.50;99.90
54409;DHT22;40315;48.620;9.828;2023-04-19T04:59:46;8.50;99.90
54409;DHT22;40315;48.620;9.828;2023-04-19T05:02:13;8.40;99.90
54409;DHT22;40315;48.620;9.828;2023-04-19T05:04:41;8.40;99.90
54409;DHT22;40315;48.620;9.828;2023-04-19T05:07:09;8.40;99.90
54409;DHT22;40315;48.620;9.828;2023-04-19T05:09:38;8.40;99.90
54409;DHT22;40315;48.620;9.828;2023-04-19T05:12:08;8.40;99.90
54409;DHT22;40315;48.620;9.828;2023-04-19T05:17:03;8.30;99.90
54409;DHT22;40315;48.620;9.828;2023-04-19T05:19:31;8.40;99.90
54409;DHT22;40315;48.620;9.828;2023-04-19T05:22:04;8.40;99.90
54409;DHT22;40315;48.620;9.828;2023-04-19T05:24:31;8.40;99.90
54409;DHT22;40315;48.620;9.828;2023-04-19T05:26:59;8.40;99.90
54409;DHT22;40315;48.620;9.828;2023-04-19T05:29:29;9.10;99.90
54409;DHT22;40315;48.620;9.828;2023-04-19T05:31:58;8.40;99.90
54409;DHT22;40315;48.620;9.828;2023-04-19T05:34:31;8.40;99.90
54409;DHT22;40315;48.620;9.828;2023-04-19T05:36:59;8.50;99.90
54409;DHT22;40315;48.620;9.828;2023-04-19T05:39:26;8.50;99.90
54409;DHT22;40315;48.620;9.828;2023-04-19T05:41:53;8.50;99.90
54409;DHT22;40315;48.620;9.828;2023-04-19T05:44:20;8.50;99.90
54409;DHT22;40315;48.620;9.828;2023-04-19T05:46:47;8.50;99.90
54409;DHT22;40315;48.620;9.828;2023-04-19T05:49:28;8.50;99.90
54409;DHT22;40315;48.620;9.828;2023-04-19T05:52:14;8.40;99.90
54409;DHT22;40315;48.620;9.828;2023-04-19T05:54:48;8.70;99.90
54409;DHT22;40315;48.620;9.828;2023-04-19T05:57:16;8.50;99.90
54409;DHT22;40315;48.620;9.828;2023-04-19T05:59:43;8.40;99.90
54409;DHT22;40315;48.620;9.828;2023-04-19T06:02:13;8.40;99.90
54409;DHT22;40315;48.620;9.828;2023-04-19T06:04:41;8.50;99.90
54409;DHT22;40315;48.620;9.828;2023-04-19T06:07:10;8.70;99.90
54409;DHT22;40315;48.620;9.828;2023-04-19T06:09:39;8.50;99.90
54409;DHT22;40315;48.620;9.828;2023-04-19T06:12:06;8.50;99.90
54409;DHT22;40315;48.620;9.828;2023-04-19T06:14:33;8.50;99.90
54409;DHT22;40315;48.620;9.828;2023-04-19T06:17:01;8.50;99.90
54409;DHT22;40315;48.620;9.828;2023-04-19T06:19:28;8.50;99.90
54409;DHT22;40315;48.620;9.828;2023-04-19T06:21:56;8.50;99.90
54409;DHT22;40315;48.620;9.828;2023-04-19T06:24:23;8.50;99.90
54409;DHT22;40315;48.620;9.828;2023-04-19T06:26:50;8.60;99.90
54409;DHT22;40315;48.620;9.828;2023-04-19T06:29:19;7.90;99.90
54409;DHT22;40315;48.620;9.828;2023-04-19T06:31:50;8.60;99.90
54409;DHT22;40315;48.620;9.828;2023-04-19T06:34:17;8.60;99.90
54409;DHT22;40315;48.620;9.828;2023-04-19T06:36:47;8.70;99.90
54409;DHT22;40315;48.620;9.828;2023-04-19T06:39:15;8.70;99.90
54409;DHT22;40315;48.620;9.828;2023-04-19T06:41:43;8.70;99.90
54409;DHT22;40315;48.620;9.828;2023-04-19T06:44:15;8.70;99.90
54409;DHT22;40315;48.620;9.828;2023-04-19T06:46:44;8.70;99.90
54409;DHT22;40315;48.620;9.828;2023-04-19T06:49:11;8.80;99.90
54409;DHT22;40315;48.620;9.828;2023-04-19T06:51:38;8.80;99.90
54409;DHT22;40315;48.620;9.828;2023-04-19T06:54:05;8.80;99.90
54409;DHT22;40315;48.620;9.828;2023-04-19T06:56:40;8.40;99.90
54409;DHT22;40315;48.620;9.828;2023-04-19T06:59:10;8.80;99.90
54409;DHT22;40315;48.620;9.828;2023-04-19T07:01:40;8.80;99.90
54409;DHT22;40315;48.620;9.828;2023-04-19T07:04:07;8.90;99.90
54409;DHT22;40315;48.620;9.828;2023-04-19T07:06:34;8.80;99.90
54409;DHT22;40315;48.620;9.828;2023-04-19T07:09:02;9.00;99.90
54409;DHT22;40315;48.620;9.828;2023-04-19T07:11:29;9.00;99.90
54409;DHT22;40315;48.620;9.828;2023-04-19T07:13:58;9.00;99.90
54409;DHT22;40315;48.620;9.828;2023-04-19T07:16:26;9.10;99.90
54409;DHT22;40315;48.620;9.828;2023-04-19T07:18:53;9.10;99.90
54409;DHT22;40315;48.620;9.828;2023-04-19T07:21:22;9.20;99.90
54409;DHT22;40315;48.620;9.828;2023-04-19T07:23:54;9.20;99.90
54409;DHT22;40315;48.620;9.828;2023-04-19T07:26:24;9.30;99.90
54409;DHT22;40315;48.620;9.828;2023-04-19T07:28:53;9.30;99.90
54409;DHT22;40315;48.620;9.828;2023-04-19T07:31:22;9.30;99.90
54409;DHT22;40315;48.620;9.828;2023-04-19T07:33:50;9.40;99.90
54409;DHT22;40315;48.620;9.828;2023-04-19T07:36:17;9.40;99.90
54409;DHT22;40315;48.620;9.828;2023-04-19T07:38:45;9.60;99.90
54409;DHT22;40315;48.620;9.828;2023-04-19T07:41:12;9.70;99.90
54409;DHT22;40315;48.620;9.828;2023-04-19T07:43:41;9.70;99.90
54409;DHT22;40315;48.620;9.828;2023-04-19T07:46:09;9.90;99.90
54409;DHT22;40315;48.620;9.828;2023-04-19T07:48:38;10.00;99.90
54409;DHT22;40315;48.620;9.828;2023-04-19T07:51:08;10.50;99.90
54409;DHT22;40315;48.620;9.828;2023-04-19T07:53:36;10.00;99.90
54409;DHT22;40315;48.620;9.828;2023-04-19T07:56:06;10.10;99.90
54409;DHT22;40315;48.620;9.828;2023-04-19T07:58:36;10.20;99.90
54409;DHT22;40315;48.620;9.828;2023-04-19T08:01:03;10.30;99.90
54409;DHT22;40315;48.620;9.828;2023-04-19T08:03:33;10.50;99.90
54409;DHT22;40315;48.620;9.828;2023-04-19T08:06:02;10.50;99.90
54409;DHT22;40315;48.620;9.828;2023-04-19T08:08:30;10.40;99.90
54409;DHT22;40315;48.620;9.828;2023-04-19T08:10:57;10.30;99.90
54409;DHT22;40315;48.620;9.828;2023-04-19T08:13:27;10.30;99.90
54409;DHT22;40315;48.620;9.828;2023-04-19T08:15:54;10.40;99.90
54409;DHT22;40315;48.620;9.828;2023-04-19T08:18:21;10.70;99.90
54409;DHT22;40315;48.620;9.828;2023-04-19T08:20:48;10.90;99.90
54409;DHT22;40315;48.620;9.828;2023-04-19T08:23:18;11.00;99.90
54409;DHT22;40315;48.620;9.828;2023-04-19T08:25:45;10.50;99.90
54409;DHT22;40315;48.620;9.828;2023-04-19T08:28:12;10.10;99.90
54409;DHT22;40315;48.620;9.828;2023-04-19T08:30:43;9.90;99.90
54409;DHT22;40315;48.620;9.828;2023-04-19T08:33:10;9.70;99.90
54409;DHT22;40315;48.620;9.828;2023-04-19T08:35:38;9.50;99.90
54409;DHT22;40315;48.620;9.828;2023-04-19T08:38:06;9.50;99.90
54409;DHT22;40315;48.620;9.828;2023-04-19T08:40:34;9.60;99.90
54409;DHT22;40315;48.620;9.828;2023-04-19T08:43:04;9.70;99.90
54409;DHT22;40315;48.620;9.828;2023-04-19T08:45:32;9.70;99.90
54409;DHT22;40315;48.620;9.828;2023-04-19T08:48:00;9.70;99.90
54409;DHT22;40315;48.620;9.828;2023-04-19T08:50:28;9.90;99.90
54409;DHT22;40315;48.620;9.828;2023-04-19T08:52:57;9.80;99.90
54409;DHT22;40315;48.620;9.828;2023-04-19T08:55:25;9.80;99.90
54409;DHT22;40315;48.620;9.828;2023-04-19T08:57:56;9.80;99.90
54409;DHT22;40315;48.620;9.828;2023-04-19T09:00:24;9.80;99.90
54409;DHT22;40315;48.620;9.828;2023-04-19T09:02:52;9.90;99.90
54409;DHT22;40315;48.620;9.828;2023-04-19T09:05:19;10.30;99.90
54409;DHT22;40315;48.620;9.828;2023-04-19T09:07:46;10.10;99.90
54409;DHT22;40315;48.620;9.828;2023-04-19T09:10:14;10.10;99.90
54409;DHT22;40315;48.620;9.828;2023-04-19T09:12:42;10.20;99.90
54409;DHT22;40315;48.620;9.828;2023-04-19T09:15:10;10.40;99.90
54409;DHT22;40315;48.620;9.828;2023-04-19T09:17:38;10.40;99.90
54409;DHT22;40315;48.620;9.828;2023-04-19T09:20:06;10.60;99.90
54409;DHT22;40315;48.620;9.828;2023-04-19T09:22:33;10.60;99.90
54409;DHT22;40315;48.620;9.828;2023-04-19T09:25:00;10.30;99.90
54409;DHT22;40315;48.620;9.828;2023-04-19T09:27:30;10.50;99.90
54409;DHT22;40315;48.620;9.828;2023-04-19T09:30:01;10.40;99.90
54409;DHT22;40315;48.620;9.828;2023-04-19T09:32:46;10.40;99.90
54409;DHT22;40315;48.620;9.828;2023-04-19T09:35:13;10.50;99.90
54409;DHT22;40315;48.620;9.828;2023-04-19T09:37:40;10.60;99.90
54409;DHT22;40315;48.620;9.828;2023-04-19T09:40:21;10.80;99.90
54409;DHT22;40315;48.620;9.828;2023-04-19T09:42:48;11.10;99.90
54409;DHT22;40315;48.620;9.828;2023-04-19T09:45:16;11.20;99.90
54409;DHT22;40315;48.620;9.828;2023-04-19T09:47:59;11.10;99.90
54409;DHT22;40315;48.620;9.828;2023-04-19T09:50:29;11.50;99.90
54409;DHT22;40315;48.620;9.828;2023-04-19T09:52:56;11.70;99.90
54409;DHT22;40315;48.620;9.828;2023-04-19T09:55:27;11.70;99.90
54409;DHT22;40315;48.620;9.828;2023-04-19T09:57:54;11.70;99.90
54409;DHT22;40315;48.620;9.828;2023-04-19T10:00:21;11.70;99.90
54409;DHT22;40315;48.620;9.828;2023-04-19T10:02:52;11.50;99.90
54409;DHT22;40315;48.620;9.828;2023-04-19T10:05:23;12.20;99.90
54409;DHT22;40315;48.620;9.828;2023-04-19T10:07:50;11.60;99.90
54409;DHT22;40315;48.620;9.828;2023-04-19T10:10:19;11.80;99.90
54409;DHT22;40315;48.620;9.828;2023-04-19T10:12:50;12.00;99.90
54409;DHT22;40315;48.620;9.828;2023-04-19T10:15:21;12.20;99.90
54409;DHT22;40315;48.620;9.828;2023-04-19T10:17:50;11.70;99.90
54409;DHT22;40315;48.620;9.828;2023-04-19T10:20:22;11.40;99.90
54409;DHT22;40315;48.620;9.828;2023-04-19T10:22:49;11.20;99.90
54409;DHT22;40315;48.620;9.828;2023-04-19T10:25:17;11.10;99.90
54409;DHT22;40315;48.620;9.828;2023-04-19T10:27:44;10.90;99.90
54409;DHT22;40315;48.620;9.828;2023-04-19T10:30:17;10.80;99.90
54409;DHT22;40315;48.620;9.828;2023-04-19T10:32:51;10.70;99.90
54409;DHT22;40315;48.620;9.828;2023-04-19T10:35:21;10.60;99.90
54409;DHT22;40315;48.620;9.828;2023-04-19T10:38:06;10.70;99.90
54409;DHT22;40315;48.620;9.828;2023-04-19T10:40:56;11.00;99.90
54409;DHT22;40315;48.620;9.828;2023-04-19T10:43:26;11.10;99.90
54409;DHT22;40315;48.620;9.828;2023-04-19T10:45:54;11.00;99.90
54409;DHT22;40315;48.620;9.828;2023-04-19T10:48:31;10.80;99.90
54409;DHT22;40315;48.620;9.828;2023-04-19T10:51:02;10.90;99.90
54409;DHT22;40315;48.620;9.828;2023-04-19T10:53:53;10.90;99.90
54409;DHT22;40315;48.620;9.828;2023-04-19T10:59:24;10.70;99.90
54409;DHT22;40315;48.620;9.828;2023-04-19T11:01:53;10.60;99.90
54409;DHT22;40315;48.620;9.828;2023-04-19T11:04:22;10.60;99.90
54409;DHT22;40315;48.620;9.828;2023-04-19T11:06:59;10.40;99.90
54409;DHT22;40315;48.620;9.828;2023-04-19T11:09:29;10.30;99.90
54409;DHT22;40315;48.620;9.828;2023-04-19T11:12:00;10.50;99.90
54409;DHT22;40315;48.620;9.828;2023-04-19T11:14:31;10.40;99.90
54409;DHT22;40315;48.620;9.828;2023-04-19T11:16:59;10.40;99.90
54409;DHT22;40315;48.620;9.828;2023-04-19T11:19:26;10.50;99.90
54409;DHT22;40315;48.620;9.828;2023-04-19T11:21:58;10.50;99.90
54409;DHT22;40315;48.620;9.828;2023-04-19T11:24:27;10.60;99.90
54409;DHT22;40315;48.620;9.828;2023-04-19T11:26:55;10.40;99.90
54409;DHT22;40315;48.620;9.828;2023-04-19T11:29:23;10.90;99.90
54409;DHT22;40315;48.620;9.828;2023-04-19T11:31:50;11.00;99.90
54409;DHT22;40315;48.620;9.828;2023-04-19T11:34:21;10.90;99.90
54409;DHT22;40315;48.620;9.828;2023-04-19T11:36:49;10.70;99.90
54409;DHT22;40315;48.620;9.828;2023-04-19T11:39:18;10.80;99.90
54409;DHT22;40315;48.620;9.828;2023-04-19T11:41:46;10.70;99.90
54409;DHT22;40315;48.620;9.828;2023-04-19T11:44:16;10.60;99.90
54409;DHT22;40315;48.620;9.828;2023-04-19T11:46:58;10.60;99.90
54409;DHT22;40315;48.620;9.828;2023-04-19T11:49:26;10.70;99.90
54409;DHT22;40315;48.620;9.828;2023-04-19T11:51:57;10.60;99.90
54409;DHT22;40315;48.620;9.828;2023-04-19T11:54:26;10.70;99.90
54409;DHT22;40315;48.620;9.828;2023-04-19T11:56:57;10.40;99.90
54409;DHT22;40315;48.620;9.828;2023-04-19T11:59:27;10.30;99.90
54409;DHT22;40315;48.620;9.828;2023-04-19T12:01:54;10.40;99.90
54409;DHT22;40315;48.620;9.828;2023-04-19T12:04:21;10.40;99.90
54409;DHT22;40315;48.620;9.828;2023-04-19T12:06:56;10.40;99.90
54409;DHT22;40315;48.620;9.828;2023-04-19T12:09:27;10.10;99.90
54409;DHT22;40315;48.620;9.828;2023-04-19T12:11:54;9.90;99.90
54409;DHT22;40315;48.620;9.828;2023-04-19T12:14:23;9.90;99.90
54409;DHT22;40315;48.620;9.828;2023-04-19T12:17:08;9.90;99.90
54409;DHT22;40315;48.620;9.828;2023-04-19T12:19:40;9.80;99.90
54409;DHT22;40315;48.620;9.828;2023-04-19T12:22:12;9.60;99.90
54409;DHT22;40315;48.620;9.828;2023-04-19T12:24:41;9.60;99.90
54409;DHT22;40315;48.620;9.828;2023-04-19T12:27:09;9.50;99.90
54409;DHT22;40315;48.620;9.828;2023-04-19T12:29:36;9.50;99.90
54409;DHT22;40315;48.620;9.828;2023-04-19T12:32:05;9.50;99.90
54409;DHT22;40315;48.620;9.828;2023-04-19T12:34:32;9.30;99.90
54409;DHT22;40315;48.620;9.828;2023-04-19T12:36:59;9.30;99.90
54409;DHT22;40315;48.620;9.828;2023-04-19T12:39:28;9.20;99.90
54409;DHT22;40315;48.620;9.828;2023-04-19T12:41:56;9.10;99.90
54409;DHT22;40315;48.620;9.828;2023-04-19T12:44:23;9.60;99.90
54409;DHT22;40315;48.620;9.828;2023-04-19T12:46:50;9.10;99.90
54409;DHT22;40315;48.620;9.828;2023-04-19T12:49:21;9.10;99.90
54409;DHT22;40315;48.620;9.828;2023-04-19T12:51:48;10.10;99.90
54409;DHT22;40315;48.620;9.828;2023-04-19T12:54:15;9.20;99.90
54409;DHT22;40315;48.620;9.828;2023-04-19T12:56:45;8.90;99.90
54409;DHT22;40315;48.620;9.828;2023-04-19T12:59:15;8.90;99.90
54409;DHT22;40315;48.620;9.828;2023-04-19T13:01:42;8.90;99.90
54409;DHT22;40315;48.620;9.828;2023-04-19T13:04:18;8.80;99.90
54409;DHT22;40315;48.620;9.828;2023-04-19T13:06:48;8.80;99.90
54409;DHT22;40315;48.620;9.828;2023-04-19T13:09:15;8.90;99.90
54409;DHT22;40315;48.620;9.828;2023-04-19T13:11:45;8.90;99.90
54409;DHT22;40315;48.620;9.828;2023-04-19T13:14:12;9.00;99.90
54409;DHT22;40315;48.620;9.828;2023-04-19T13:16:40;9.10;99.90
54409;DHT22;40315;48.620;9.828;2023-04-19T13:19:09;8.90;99.90
54409;DHT22;40315;48.620;9.828;2023-04-19T13:21:36;8.90;99.90
54409;DHT22;40315;48.620;9.828;2023-04-19T13:24:04;8.90;99.90
54409;DHT22;40315;48.620;9.828;2023-04-19T13:26:31;8.80;99.90
54409;DHT22;40315;48.620;9.828;2023-04-19T13:28:58;9.00;99.90
54409;DHT22;40315;48.620;9.828;2023-04-19T13:31:26;9.00;99.90
54409;DHT22;40315;48.620;9.828;2023-04-19T13:33:56;9.00;99.90
54409;DHT22;40315;48.620;9.828;2023-04-19T13:36:25;8.90;99.90
54409;DHT22;40315;48.620;9.828;2023-04-19T13:38:53;8.90;99.90
54409;DHT22;40315;48.620;9.828;2023-04-19T13:41:20;8.80;99.90
54409;DHT22;40315;48.620;9.828;2023-04-19T13:43:47;8.70;99.90
54409;DHT22;40315;48.620;9.828;2023-04-19T13:46:14;8.70;99.90
54409;DHT22;40315;48.620;9.828;2023-04-19T13:48:41;8.60;99.90
54409;DHT22;40315;48.620;9.828;2023-04-19T13:51:10;8.60;99.90
54409;DHT22;40315;48.620;9.828;2023-04-19T13:53:37;8.90;99.90
54409;DHT22;40315;48.620;9.828;2023-04-19T13:56:06;8.50;99.90
54409;DHT22;40315;48.620;9.828;2023-04-19T13:58:34;8.50;99.90
54409;DHT22;40315;48.620;9.828;2023-04-19T14:01:01;8.50;99.90
54409;DHT22;40315;48.620;9.828;2023-04-19T14:03:30;8.50;99.90
54409;DHT22;40315;48.620;9.828;2023-04-19T14:05:57;8.50;99.90
54409;DHT22;40315;48.620;9.828;2023-04-19T14:08:26;8.50;99.90
54409;DHT22;40315;48.620;9.828;2023-04-19T14:10:53;8.60;99.90
54409;DHT22;40315;48.620;9.828;2023-04-19T14:13:20;8.60;99.90
54409;DHT22;40315;48.620;9.828;2023-04-19T14:15:47;8.60;99.90
54409;DHT22;40315;48.620;9.828;2023-04-19T14:18:14;8.60;99.90
54409;DHT22;40315;48.620;9.828;2023-04-19T14:20:41;8.70;99.90
54409;DHT22;40315;48.620;9.828;2023-04-19T14:23:10;8.70;99.90
54409;DHT22;40315;48.620;9.828;2023-04-19T14:25:39;8.80;99.90
54409;DHT22;40315;48.620;9.828;2023-04-19T14:28:06;8.80;99.90
54409;DHT22;40315;48.620;9.828;2023-04-19T14:30:33;8.80;99.90
54409;DHT22;40315;48.620;9.828;2023-04-19T14:33:00;8.80;99.90
54409;DHT22;40315;48.620;9.828;2023-04-19T14:35:27;8.70;99.90
54409;DHT22;40315;48.620;9.828;2023-04-19T14:37:54;8.80;99.90
54409;DHT22;40315;48.620;9.828;2023-04-19T14:40:22;9.00;99.90
54409;DHT22;40315;48.620;9.828;2023-04-19T14:42:50;9.00;99.90
54409;DHT22;40315;48.620;9.828;2023-04-19T14:45:18;8.90;99.90
54409;DHT22;40315;48.620;9.828;2023-04-19T14:47:48;8.70;99.90
54409;DHT22;40315;48.620;9.828;2023-04-19T14:50:15;8.80;99.90
54409;DHT22;40315;48.620;9.828;2023-04-19T14:52:44;8.70;99.90
54409;DHT22;40315;48.620;9.828;2023-04-19T14:55:12;8.70;99.90
54409;DHT22;40315;48.620;9.828;2023-04-19T14:57:39;8.70;99.90
54409;DHT22;40315;48.620;9.828;2023-04-19T15:00:10;8.70;99.90
54409;DHT22;40315;48.620;9.828;2023-04-19T15:02:37;8.80;99.90
54409;DHT22;40315;48.620;9.828;2023-04-19T15:05:05;8.80;99.90
54409;DHT22;40315;48.620;9.828;2023-04-19T15:07:33;8.80;99.90
54409;DHT22;40315;48.620;9.828;2023-04-19T15:10:00;8.90;99.90
54409;DHT22;40315;48.620;9.828;2023-04-19T15:12:29;9.00;99.90
54409;DHT22;40315;48.620;9.828;2023-04-19T15:14:56;9.00;99.90
54409;DHT22;40315;48.620;9.828;2023-04-19T15:17:24;9.10;99.90
54409;DHT22;40315;48.620;9.828;2023-04-19T15:19:53;9.20;99.90
54409;DHT22;40315;48.620;9.828;2023-04-19T15:22:20;9.30;99.90
54409;DHT22;40315;48.620;9.828;2023-04-19T15:24:47;9.30;99.90
54409;DHT22;40315;48.620;9.828;2023-04-19T15:27:14;9.40;99.90
54409;DHT22;40315;48.620;9.828;2023-04-19T15:29:41;9.40;99.90
54409;DHT22;40315;48.620;9.828;2023-04-19T15:32:08;9.40;99.90
54409;DHT22;40315;48.620;9.828;2023-04-19T15:34:39;9.40;99.90
54409;DHT22;40315;48.620;9.828;2023-04-19T15:37:06;9.30;99.90
54409;DHT22;40315;48.620;9.828;2023-04-19T15:39:33;9.50;99.90
54409;DHT22;40315;48.620;9.828;2023-04-19T15:42:02;9.40;99.90
54409;DHT22;40315;48.620;9.828;2023-04-19T15:44:31;9.50;99.90
54409;DHT22;40315;48.620;9.828;2023-04-19T15:46:59;9.50;99.90
54409;DHT22;40315;48.620;9.828;2023-04-19T15:49:26;9.40;99.90
54409;DHT22;40315;48.620;9.828;2023-04-19T15:51:54;9.40;99.90
54409;DHT22;40315;48.620;9.828;2023-04-19T15:54:23;9.40;99.90
54409;DHT22;40315;48.620;9.828;2023-04-19T15:56:51;9.40;99.90
54409;DHT22;40315;48.620;9.828;2023-04-19T15:59:24;9.50;99.90
54409;DHT22;40315;48.620;9.828;2023-04-19T16:01:54;9.60;99.90
54409;DHT22;40315;48.620;9.828;2023-04-19T16:04:21;9.70;99.90
54409;DHT22;40315;48.620;9.828;2023-04-19T16:06:50;9.80;99.90
54409;DHT22;40315;48.620;9.828;2023-04-19T16:09:22;9.90;99.90